createdAt,value
2019-04-29T00:00:40.292Z,98.5626
2019-04-29T00:01:43.283Z,98.5077
2019-04-29T00:02:45.353Z,98.4695
2019-04-29T00:03:48.303Z,98.2742
2019-04-29T00:04:51.312Z,98.1857
2019-04-29T00:05:54.304Z,98.4253
2019-04-29T00:06:57.281Z,98.4756
2019-04-29T00:08:00.353Z,98.1277
2019-04-29T00:09:03.296Z,98.2498
2019-04-29T00:10:06.293Z,98.2132
2019-04-29T00:11:09.283Z,98.1262
2019-04-29T00:12:12.327Z,98.2086
2019-04-29T00:13:15.277Z,98.3734
2019-04-29T00:14:18.280Z,98.3520
2019-04-29T00:15:21.304Z,98.5702
2019-04-29T00:16:24.317Z,98.4619
2019-04-29T00:17:27.273Z,98.5122
2019-04-29T00:18:30.308Z,98.4833
2019-04-29T00:19:36.100Z,98.4283
2019-04-29T00:20:39.266Z,98.6526
2019-04-29T00:21:41.299Z,98.5626
2019-04-29T00:22:44.277Z,98.4970
2019-04-29T00:23:47.294Z,98.4207
2019-04-29T00:24:50.311Z,98.5946
2019-04-29T00:25:53.323Z,98.4604
2019-04-29T00:26:56.293Z,98.4527
2019-04-29T00:27:59.317Z,98.3413
2019-04-29T00:29:02.339Z,98.5428
2019-04-29T00:30:05.323Z,98.5397
2019-04-29T00:31:08.322Z,98.5840
2019-04-29T00:32:11.278Z,98.5718
2019-04-29T00:33:14.291Z,98.5214
2019-04-29T00:34:17.354Z,98.3413
2019-04-29T00:35:20.313Z,98.3597
2019-04-29T00:36:23.277Z,98.3917
2019-04-29T00:37:26.272Z,98.2406
2019-04-29T00:38:29.330Z,98.3200
2019-04-29T00:39:32.335Z,98.2971
2019-04-29T00:40:35.311Z,98.3337
2019-04-29T00:41:38.278Z,98.3520
2019-04-29T00:42:41.278Z,98.0636
2019-04-29T00:43:44.359Z,98.3688
2019-04-29T00:44:47.308Z,98.4894
2019-04-29T00:45:50.300Z,98.4756
2019-04-29T00:46:53.281Z,98.3703
2019-04-29T00:47:56.338Z,98.3475
2019-04-29T00:48:59.283Z,98.3642
2019-04-29T00:50:02.347Z,98.2834
2019-04-29T00:51:05.347Z,98.1765
2019-04-29T00:52:08.309Z,98.2101
2019-04-29T00:53:11.289Z,98.1765
2019-04-29T00:54:14.303Z,98.2513
2019-04-29T00:55:17.345Z,98.2513
2019-04-29T00:56:20.270Z,98.4054
2019-04-29T00:57:23.302Z,98.3825
2019-04-29T00:58:26.263Z,98.2651
2019-04-29T00:59:29.303Z,98.3703
2019-04-29T01:00:32.318Z,98.1506
2019-04-29T01:01:35.319Z,98.1277
2019-04-29T01:02:38.283Z,98.0682
2019-04-29T01:03:41.405Z,97.6822
2019-04-29T01:04:44.309Z,97.9080
2019-04-29T01:05:47.338Z,97.8515
2019-04-29T01:06:50.276Z,98.1414
2019-04-29T01:07:53.325Z,98.2742
2019-04-29T01:08:56.299Z,98.4344
2019-04-29T01:09:58.288Z,98.7182
2019-04-29T01:11:01.361Z,98.5580
2019-04-29T01:12:04.327Z,98.5794
2019-04-29T01:13:07.317Z,98.6633
2019-04-29T01:14:10.309Z,98.7442
2019-04-29T01:15:13.311Z,98.8083
2019-04-29T01:16:16.345Z,98.8266
2019-04-29T01:17:19.284Z,98.8876
2019-04-29T01:18:22.305Z,98.8418
2019-04-29T01:19:25.266Z,98.7305
2019-04-29T01:20:28.278Z,98.6664
2019-04-29T01:21:30.333Z,98.6481
2019-04-29T01:22:33.297Z,98.4421
2019-04-29T01:23:36.301Z,98.6587
2019-04-29T01:24:39.333Z,98.6542
2019-04-29T01:25:42.269Z,98.5336
2019-04-29T01:26:45.304Z,98.4802
2019-04-29T01:27:48.312Z,98.3322
2019-04-29T01:28:51.288Z,98.1994
2019-04-29T01:29:54.295Z,98.3597
2019-04-29T01:30:57.295Z,98.1781
2019-04-29T01:32:00.333Z,98.0957
2019-04-29T01:33:03.310Z,98.0438
2019-04-29T01:34:06.253Z,98.0774
2019-04-29T01:35:09.283Z,98.0438
2019-04-29T01:36:12.338Z,98.1170
2019-04-29T01:37:15.317Z,98.3566
2019-04-29T01:38:18.283Z,98.2238
2019-04-29T01:39:21.298Z,97.6822
2019-04-29T01:40:24.275Z,97.8622
2019-04-29T01:41:27.287Z,98.2788
2019-04-29T01:42:30.306Z,98.0575
2019-04-29T01:43:33.318Z,97.9751
2019-04-29T01:44:36.273Z,98.3063
2019-04-29T01:45:39.305Z,98.3429
2019-04-29T01:46:42.317Z,98.3520
2019-04-29T01:47:45.340Z,98.3932
2019-04-29T01:48:48.305Z,98.3642
2019-04-29T01:49:51.315Z,98.7121
2019-04-29T01:50:54.290Z,98.5809
2019-04-29T01:51:57.302Z,98.5611
2019-04-29T01:53:00.326Z,98.2788
2019-04-29T01:54:03.287Z,98.0545
2019-04-29T01:55:08.327Z,97.9492
2019-04-29T01:56:11.280Z,97.6287
2019-04-29T01:57:13.292Z,97.6089
2019-04-29T01:58:16.347Z,97.7279
2019-04-29T01:59:19.288Z,97.6699
2019-04-29T02:00:22.327Z,97.8744
2019-04-29T02:01:25.314Z,98.0346
2019-04-29T02:02:28.290Z,98.2452
2019-04-29T02:03:31.310Z,98.2101
2019-04-29T02:04:34.345Z,98.4649
2019-04-29T02:05:37.287Z,98.3047
2019-04-29T02:06:40.302Z,97.7966
2019-04-29T02:07:43.290Z,97.8531
2019-04-29T02:08:46.337Z,97.7111
2019-04-29T02:09:49.285Z,98.0438
2019-04-29T02:10:52.282Z,98.0758
2019-04-29T02:11:55.283Z,98.1552
2019-04-29T02:12:58.279Z,98.3917
2019-04-29T02:14:00.343Z,98.6343
2019-04-29T02:15:03.296Z,98.6847
2019-04-29T02:16:06.274Z,98.9410
2019-04-29T02:17:09.298Z,99.1287
2019-04-29T02:18:12.261Z,99.1806
2019-04-29T02:19:15.346Z,99.3042
2019-04-29T02:20:18.270Z,99.3118
2019-04-29T02:21:21.329Z,99.3362
2019-04-29T02:22:24.280Z,99.3179
2019-04-29T02:23:27.325Z,99.0875
2019-04-29T02:24:30.312Z,99.0112
2019-04-29T02:25:33.289Z,98.9288
2019-04-29T02:26:36.278Z,98.8129
2019-04-29T02:27:40.325Z,98.9700
2019-04-29T02:28:43.300Z,98.9044
2019-04-29T02:29:46.302Z,98.7366
2019-04-29T02:30:49.333Z,98.9380
2019-04-29T02:31:52.308Z,98.8220
2019-04-29T02:32:55.303Z,98.8037
2019-04-29T02:33:58.390Z,98.8006
2019-04-29T02:35:01.329Z,99.2584
2019-04-29T02:36:04.320Z,99.0295
2019-04-29T02:37:07.276Z,99.2752
2019-04-29T02:38:10.299Z,99.1928
2019-04-29T02:39:13.296Z,99.4125
2019-04-29T02:40:15.343Z,99.5270
2019-04-29T02:41:18.298Z,99.4781
2019-04-29T02:42:21.286Z,99.5636
2019-04-29T02:43:24.267Z,99.6887
2019-04-29T02:44:27.284Z,99.7757
2019-04-29T02:45:30.347Z,99.8566
2019-04-29T02:46:33.286Z,99.8810
2019-04-29T02:47:36.311Z,99.9298
2019-04-29T02:48:41.283Z,100.0000
2019-04-29T02:49:44.316Z,100.0000
2019-04-29T02:50:47.301Z,100.0000
2019-04-29T02:51:50.331Z,100.0000
2019-04-29T02:52:53.268Z,100.0000
2019-04-29T02:53:56.324Z,100.0000
2019-04-29T02:54:59.264Z,100.0000
2019-04-29T02:56:02.329Z,100.0000
2019-04-29T02:57:05.359Z,100.0000
2019-04-29T02:58:12.270Z,100.0000
2019-04-29T02:59:15.307Z,100.0000
2019-04-29T03:00:17.334Z,100.0000
2019-04-29T03:01:20.336Z,100.0000
2019-04-29T03:02:23.268Z,100.0000
2019-04-29T03:03:26.307Z,100.0000
2019-04-29T03:04:29.275Z,100.0000
2019-04-29T03:05:31.290Z,100.0000
2019-04-29T03:06:34.340Z,100.0000
2019-04-29T03:07:37.281Z,100.0000
2019-04-29T03:08:40.317Z,100.0000
2019-04-29T03:09:43.307Z,100.0000
2019-04-29T03:10:46.303Z,100.0000
2019-04-29T03:11:48.327Z,100.0000
2019-04-29T03:12:51.281Z,100.0000
2019-04-29T03:13:54.280Z,100.0000
2019-04-29T03:14:57.280Z,100.0000
2019-04-29T03:16:00.282Z,100.0000
2019-04-29T03:17:03.283Z,100.0000
2019-04-29T03:18:06.290Z,100.0000
2019-04-29T03:19:09.297Z,100.0000
2019-04-29T03:20:13.368Z,100.0000
2019-04-29T03:21:16.298Z,100.0000
2019-04-29T03:22:19.335Z,100.0000
2019-04-29T03:23:22.294Z,100.0000
2019-04-29T03:24:25.271Z,100.0000
2019-04-29T03:25:28.277Z,100.0000
2019-04-29T03:26:31.277Z,100.0000
2019-04-29T03:27:34.323Z,100.0000
2019-04-29T03:28:37.281Z,100.0000
2019-04-29T03:29:40.308Z,100.0000
2019-04-29T03:30:43.309Z,100.0000
2019-04-29T03:31:46.294Z,100.0000
2019-04-29T03:32:49.346Z,100.0000
2019-04-29T03:33:52.301Z,100.0000
2019-04-29T03:34:55.300Z,100.0000
2019-04-29T03:35:58.305Z,100.0000
2019-04-29T03:37:00.351Z,100.0000
2019-04-29T03:38:03.298Z,100.0000
2019-04-29T03:39:06.311Z,100.0000
2019-04-29T03:40:09.338Z,100.0000
2019-04-29T03:41:12.323Z,99.9542
2019-04-29T03:42:15.288Z,99.9207
2019-04-29T03:43:17.416Z,99.7467
2019-04-29T03:44:20.286Z,99.7696
2019-04-29T03:45:23.274Z,99.9802
2019-04-29T03:46:26.317Z,99.9710
2019-04-29T03:47:29.284Z,100.0000
2019-04-29T03:48:32.307Z,99.9313
2019-04-29T03:49:35.304Z,99.9710
2019-04-29T03:50:38.294Z,100.0000
2019-04-29T03:51:41.334Z,100.0000
2019-04-29T03:52:44.290Z,100.0000
2019-04-29T03:53:47.309Z,100.0000
2019-04-29T03:54:50.303Z,100.0000
2019-04-29T03:55:53.319Z,100.0000
2019-04-29T03:56:56.265Z,100.0000
2019-04-29T03:57:59.310Z,100.0000
2019-04-29T03:59:02.316Z,100.0000
2019-04-29T04:00:06.345Z,100.0000
2019-04-29T04:01:09.288Z,100.0000
2019-04-29T04:02:12.316Z,100.0000
2019-04-29T04:03:15.321Z,100.0000
2019-04-29T04:04:18.306Z,100.0000
2019-04-29T04:05:21.306Z,100.0000
2019-04-29T04:06:24.288Z,100.0000
2019-04-29T04:07:27.344Z,100.0000
2019-04-29T04:08:30.310Z,100.0000
2019-04-29T04:09:33.331Z,100.0000
2019-04-29T04:10:36.289Z,100.0000
2019-04-29T04:11:39.330Z,100.0000
2019-04-29T04:12:42.289Z,100.0000
2019-04-29T04:13:45.301Z,100.0000
2019-04-29T04:14:48.330Z,100.0000
2019-04-29T04:15:51.285Z,100.0000
2019-04-29T04:16:53.284Z,100.0000
2019-04-29T04:17:56.314Z,100.0000
2019-04-29T04:18:59.291Z,100.0000
2019-04-29T04:20:02.350Z,99.9176
2019-04-29T04:21:05.299Z,99.9451
2019-04-29T04:22:08.311Z,99.6872
2019-04-29T04:23:11.271Z,99.4965
2019-04-29T04:24:14.304Z,99.4873
2019-04-29T04:25:17.348Z,99.5178
2019-04-29T04:26:20.318Z,99.4507
2019-04-29T04:27:23.276Z,99.5453
2019-04-29T04:28:26.315Z,99.4690
2019-04-29T04:29:29.324Z,99.4919
2019-04-29T04:30:32.334Z,99.4675
2019-04-29T04:31:35.275Z,99.4537
2019-04-29T04:32:38.273Z,99.3896
2019-04-29T04:33:41.323Z,99.3088
2019-04-29T04:34:44.351Z,98.9792
2019-04-29T04:35:47.303Z,98.9471
2019-04-29T04:36:50.323Z,98.8998
2019-04-29T04:37:52.307Z,98.9334
2019-04-29T04:38:55.281Z,98.9746
2019-04-29T04:39:57.309Z,99.1608
2019-04-29T04:41:00.386Z,99.0646
2019-04-29T04:42:03.287Z,99.0646
2019-04-29T04:43:06.352Z,98.8724
2019-04-29T04:44:09.272Z,98.7182
2019-04-29T04:45:11.309Z,98.7182
2019-04-29T04:46:14.317Z,98.7396
2019-04-29T04:47:17.303Z,98.7945
2019-04-29T04:48:20.272Z,98.7594
2019-04-29T04:49:23.320Z,98.7686
2019-04-29T04:50:26.369Z,98.7869
2019-04-29T04:51:29.303Z,98.6862
2019-04-29T04:52:32.279Z,98.5382
2019-04-29T04:53:35.304Z,98.4421
2019-04-29T04:54:38.337Z,98.3841
2019-04-29T04:55:41.351Z,98.4298
2019-04-29T04:56:44.323Z,98.4024
2019-04-29T04:57:47.287Z,98.4237
2019-04-29T04:58:50.284Z,98.5306
2019-04-29T04:59:53.316Z,98.5031
2019-04-29T05:00:56.285Z,98.5992
2019-04-29T05:01:59.344Z,98.5611
2019-04-29T05:03:02.283Z,98.4695
2019-04-29T05:04:05.296Z,98.0682
2019-04-29T05:05:08.299Z,97.9995
2019-04-29T05:06:11.342Z,97.9995
2019-04-29T05:07:14.302Z,98.0117
2019-04-29T05:08:17.277Z,97.8897
2019-04-29T05:09:20.326Z,97.9217
2019-04-29T05:10:23.272Z,97.7508
2019-04-29T05:11:26.355Z,97.6455
2019-04-29T05:12:29.293Z,97.6455
2019-04-29T05:13:32.304Z,97.6242
2019-04-29T05:14:35.303Z,97.6181
2019-04-29T05:15:38.300Z,97.5174
2019-04-29T05:16:41.297Z,97.4136
2019-04-29T05:17:44.280Z,97.2839
2019-04-29T05:18:47.310Z,97.2885
2019-04-29T05:19:50.262Z,97.3343
2019-04-29T05:20:53.316Z,97.2763
2019-04-29T05:21:55.366Z,97.3816
2019-04-29T05:22:58.313Z,97.3388
2019-04-29T05:24:01.294Z,97.2442
2019-04-29T05:25:04.315Z,97.1511
2019-04-29T05:26:07.298Z,96.7590
2019-04-29T05:27:10.320Z,96.7575
2019-04-29T05:28:13.320Z,96.8490
2019-04-29T05:29:16.286Z,96.7300
2019-04-29T05:30:18.343Z,96.5331
2019-04-29T05:31:21.316Z,96.7071
2019-04-29T05:32:24.375Z,96.6491
2019-04-29T05:33:27.302Z,96.7132
2019-04-29T05:34:30.284Z,96.7453
2019-04-29T05:35:33.310Z,96.9100
2019-04-29T05:36:38.187Z,96.5881
2019-04-29T05:37:42.343Z,96.3134
2019-04-29T05:38:45.285Z,96.3821
2019-04-29T05:39:48.296Z,96.4462
2019-04-29T05:40:51.287Z,96.5118
2019-04-29T05:41:54.311Z,96.6354
2019-04-29T05:42:57.297Z,96.8307
2019-04-29T05:44:00.284Z,97.0016
2019-04-29T05:45:03.284Z,96.9589
2019-04-29T05:46:07.554Z,96.9100
2019-04-29T05:47:11.302Z,96.6613
2019-04-29T05:48:14.328Z,96.2951
2019-04-29T05:49:17.341Z,96.1730
2019-04-29T05:50:20.307Z,96.1639
2019-04-29T05:51:27.178Z,96.1166
2019-04-29T05:52:34.654Z,95.4452
2019-04-29T05:53:39.350Z,95.6970
2019-04-29T05:54:42.278Z,95.9197
2019-04-29T05:55:45.335Z,95.8846
2019-04-29T05:56:50.279Z,94.9126
2019-04-29T05:57:55.883Z,94.8501
2019-04-29T05:59:01.351Z,94.7448
2019-04-29T06:00:04.304Z,94.9783
2019-04-29T06:01:07.367Z,95.1736
2019-04-29T06:02:10.285Z,95.1980
2019-04-29T06:03:13.313Z,95.2926
2019-04-29T06:04:18.194Z,95.4116
2019-04-29T06:05:21.340Z,95.2651
2019-04-29T06:06:24.299Z,95.2056
2019-04-29T06:07:27.321Z,94.8135
2019-04-29T06:08:34.323Z,94.7936
2019-04-29T06:09:38.331Z,94.4106
2019-04-29T06:10:42.102Z,95.1278
2019-04-29T06:11:45.302Z,95.3887
2019-04-29T06:12:48.285Z,95.1476
2019-04-29T06:13:51.281Z,95.4665
2019-04-29T06:14:54.348Z,94.7662
2019-04-29T06:15:57.296Z,94.4228
2019-04-29T06:17:02.837Z,94.8135
2019-04-29T06:18:08.273Z,95.3979
2019-04-29T06:19:11.301Z,95.4208
2019-04-29T06:20:17.954Z,95.4986
2019-04-29T06:21:22.315Z,95.2148
2019-04-29T06:22:25.277Z,94.9508
2019-04-29T06:23:28.307Z,94.7631
2019-04-29T06:24:31.319Z,94.3221
2019-04-29T06:25:34.330Z,92.9229
2019-04-29T06:26:37.331Z,93.1380
2019-04-29T06:27:40.294Z,92.6482
2019-04-29T06:28:42.346Z,92.9442
2019-04-29T06:29:45.325Z,93.4859
2019-04-29T06:30:50.258Z,93.8338
2019-04-29T06:31:55.307Z,94.0063
2019-04-29T06:32:58.378Z,93.8979
2019-04-29T06:34:05.238Z,94.0246
2019-04-29T06:35:10.693Z,93.7606
2019-04-29T06:36:17.316Z,93.2616
2019-04-29T06:37:20.309Z,93.5958
2019-04-29T06:38:23.314Z,93.8552
2019-04-29T06:39:26.293Z,94.0429
2019-04-29T06:40:30.728Z,94.1802
2019-04-29T06:41:40.676Z,93.7194
2019-04-29T06:42:45.326Z,93.0602
2019-04-29T06:43:48.284Z,93.0220
2019-04-29T06:44:51.312Z,93.1701
2019-04-29T06:45:54.346Z,93.1044
2019-04-29T06:46:57.311Z,92.9992
2019-04-29T06:47:59.375Z,92.5734
2019-04-29T06:49:10.024Z,92.0562
2019-04-29T06:50:11.325Z,92.1492
2019-04-29T06:51:14.269Z,91.8059
2019-04-29T06:52:17.290Z,92.1401
2019-04-29T06:53:21.375Z,92.4239
2019-04-29T06:54:26.324Z,91.0353
2019-04-29T06:55:29.331Z,90.5974
2019-04-29T06:56:32.301Z,91.4611
2019-04-29T06:57:35.297Z,91.2703
2019-04-29T06:58:38.547Z,91.3252
2019-04-29T06:59:42.900Z,91.3787
2019-04-29T07:00:51.068Z,91.2139
2019-04-29T07:01:54.317Z,91.5816
2019-04-29T07:02:57.310Z,92.2545
2019-04-29T07:04:02.355Z,92.3812
2019-04-29T07:05:05.291Z,91.4519
2019-04-29T07:06:08.356Z,91.2154
2019-04-29T07:07:11.301Z,91.5679
2019-04-29T07:08:14.269Z,91.4488
2019-04-29T07:09:17.294Z,90.6844
2019-04-29T07:10:21.617Z,90.9773
2019-04-29T07:11:27.349Z,91.1589
2019-04-29T07:12:30.313Z,92.0439
2019-04-29T07:13:33.307Z,91.0140
2019-04-29T07:14:38.607Z,90.5104
2019-04-29T07:15:43.433Z,91.0094
2019-04-29T07:16:50.340Z,90.7347
2019-04-29T07:17:53.320Z,91.4900
2019-04-29T07:18:56.274Z,91.9509
2019-04-29T07:20:02.038Z,91.7952
2019-04-29T07:21:07.437Z,91.4107
2019-04-29T07:22:14.340Z,91.7510
2019-04-29T07:23:17.380Z,91.8471
2019-04-29T07:24:20.563Z,90.7332
2019-04-29T07:25:24.753Z,91.3054
2019-04-29T07:26:31.265Z,90.7118
2019-04-29T07:27:40.438Z,90.9957
2019-04-29T07:28:42.304Z,91.2779
2019-04-29T07:29:45.305Z,90.0877
2019-04-29T07:31:01.224Z,90.4234
2019-04-29T07:31:56.301Z,90.4280
2019-04-29T07:33:00.413Z,90.7713
2019-04-29T07:34:03.298Z,90.5364
2019-04-29T07:35:09.928Z,90.0114
2019-04-29T07:36:14.310Z,89.6025
2019-04-29T07:37:17.352Z,90.1839
2019-04-29T07:38:20.337Z,90.5928
2019-04-29T07:39:22.353Z,90.2541
2019-04-29T07:40:25.323Z,90.2205
2019-04-29T07:41:30.361Z,89.3507
2019-04-29T07:42:33.392Z,89.5430
2019-04-29T07:43:38.465Z,90.2541
2019-04-29T07:44:44.529Z,90.3532
2019-04-29T07:45:47.312Z,90.5684
2019-04-29T07:46:57.046Z,89.6132
2019-04-29T07:48:01.702Z,89.2042
2019-04-29T07:49:06.350Z,89.5583
2019-04-29T07:50:09.382Z,90.0557
2019-04-29T07:51:12.332Z,88.7114
2019-04-29T07:52:16.162Z,89.5933
2019-04-29T07:53:20.885Z,89.5979
2019-04-29T07:54:27.310Z,89.3828
2019-04-29T07:55:30.875Z,89.3385
2019-04-29T07:56:37.910Z,88.9616
2019-04-29T07:57:43.306Z,88.7098
2019-04-29T07:58:48.562Z,89.1676
2019-04-29T07:59:51.325Z,88.9952
2019-04-29T08:00:56.237Z,89.7810
2019-04-29T08:01:59.885Z,90.1106
2019-04-29T08:03:04.345Z,88.9708
2019-04-29T08:04:07.287Z,88.7556
2019-04-29T08:05:10.330Z,89.2821
2019-04-29T08:06:13.291Z,89.9779
2019-04-29T08:07:16.309Z,89.9092
2019-04-29T08:08:21.332Z,90.2159
2019-04-29T08:09:25.328Z,89.9504
2019-04-29T08:10:29.744Z,90.3212
2019-04-29T08:11:33.301Z,89.2561
2019-04-29T08:12:36.313Z,88.6778
2019-04-29T08:13:39.285Z,89.5338
2019-04-29T08:14:42.298Z,89.3614
2019-04-29T08:15:45.310Z,89.3339
2019-04-29T08:16:48.321Z,89.3111
2019-04-29T08:17:55.493Z,90.4494
2019-04-29T08:18:59.296Z,89.1264
2019-04-29T08:20:05.163Z,88.4993
2019-04-29T08:21:10.273Z,89.5888
2019-04-29T08:22:18.364Z,89.9504
2019-04-29T08:23:21.315Z,89.3568
2019-04-29T08:24:23.323Z,89.6986
2019-04-29T08:25:27.181Z,89.3690
2019-04-29T08:26:33.657Z,89.6208
2019-04-29T08:27:40.621Z,88.4901
2019-04-29T08:28:44.344Z,89.3065
2019-04-29T08:29:47.287Z,89.5567
2019-04-29T08:30:50.316Z,89.6758
2019-04-29T08:31:57.365Z,88.8334
2019-04-29T08:33:01.349Z,89.7581
2019-04-29T08:34:04.323Z,89.5537
2019-04-29T08:35:07.309Z,89.1600
2019-04-29T08:36:10.308Z,89.0394
2019-04-29T08:37:12.303Z,88.6473
2019-04-29T08:38:15.371Z,88.8746
2019-04-29T08:39:18.299Z,89.0074
2019-04-29T08:40:21.352Z,88.0644
2019-04-29T08:41:28.563Z,88.2307
2019-04-29T08:42:32.311Z,88.6458
2019-04-29T08:43:35.295Z,89.2470
2019-04-29T08:44:38.296Z,89.1997
2019-04-29T08:45:41.331Z,88.8334
2019-04-29T08:46:51.375Z,88.7648
2019-04-29T08:47:52.350Z,88.8746
2019-04-29T08:48:55.337Z,87.9881
2019-04-29T08:49:58.342Z,89.1646
2019-04-29T08:51:01.300Z,87.8782
2019-04-29T08:52:04.323Z,87.8447
2019-04-29T08:53:06.351Z,88.0247
2019-04-29T08:54:09.357Z,87.6570
2019-04-29T08:55:12.341Z,87.6310
2019-04-29T08:56:15.283Z,87.1763
2019-04-29T08:57:18.365Z,85.9648
2019-04-29T08:58:21.315Z,85.6764
2019-04-29T08:59:24.902Z,84.9424
2019-04-29T09:00:29.273Z,83.9460
2019-04-29T09:01:34.095Z,84.5686
2019-04-29T09:02:41.438Z,84.5228
2019-04-29T09:03:47.333Z,83.1723
2019-04-29T09:04:53.819Z,84.0925
2019-04-29T09:06:05.038Z,83.0655
2019-04-29T09:07:12.513Z,81.6831
2019-04-29T09:08:13.669Z,82.0737
2019-04-29T09:09:28.404Z,80.6531
2019-04-29T09:10:25.334Z,80.8057
2019-04-29T09:11:28.358Z,81.1383
2019-04-29T09:12:31.320Z,80.6592
2019-04-29T09:13:36.400Z,79.7620
2019-04-29T09:14:39.280Z,80.4669
2019-04-29T09:15:42.354Z,79.3912
2019-04-29T09:16:45.320Z,79.2981
2019-04-29T09:17:48.356Z,80.2518
2019-04-29T09:18:51.325Z,78.7411
2019-04-29T09:19:54.339Z,79.5865
2019-04-29T09:20:57.301Z,79.3088
2019-04-29T09:22:00.318Z,78.9822
2019-04-29T09:23:03.392Z,79.6292
2019-04-29T09:24:06.319Z,79.6704
2019-04-29T09:25:09.326Z,80.6775
2019-04-29T09:26:12.330Z,79.5605
2019-04-29T09:27:15.315Z,78.4329
2019-04-29T09:28:27.024Z,79.0433
2019-04-29T09:29:26.337Z,78.2696
2019-04-29T09:30:29.286Z,77.8897
2019-04-29T09:31:32.325Z,78.3551
2019-04-29T09:32:38.236Z,78.3871
2019-04-29T09:33:44.274Z,78.5946
2019-04-29T09:34:51.349Z,79.2844
2019-04-29T09:35:54.275Z,78.2422
2019-04-29T09:36:57.339Z,79.7803
2019-04-29T09:38:00.284Z,78.7503
2019-04-29T09:39:03.333Z,78.9929
2019-04-29T09:40:06.298Z,80.0168
2019-04-29T09:41:09.311Z,80.3159
2019-04-29T09:42:13.195Z,80.9293
2019-04-29T09:43:21.368Z,80.6043
2019-04-29T09:44:26.385Z,80.2090
2019-04-29T09:45:29.291Z,79.1714
2019-04-29T09:46:34.465Z,79.1287
2019-04-29T09:47:38.290Z,78.4115
2019-04-29T09:48:40.323Z,79.2493
2019-04-29T09:49:43.315Z,78.9319
2019-04-29T09:50:46.322Z,76.8597
2019-04-29T09:51:49.363Z,77.4228
2019-04-29T09:52:52.336Z,77.1298
2019-04-29T09:53:55.335Z,75.8923
2019-04-29T09:54:59.523Z,77.8393
2019-04-29T09:56:06.299Z,76.1868
2019-04-29T09:57:09.302Z,76.3409
2019-04-29T09:58:12.314Z,77.7523
2019-04-29T09:59:15.310Z,75.5673
2019-04-29T10:00:18.304Z,73.7072
2019-04-29T10:01:21.304Z,75.4955
2019-04-29T10:02:26.357Z,76.5286
2019-04-29T10:03:32.298Z,76.7163
2019-04-29T10:04:35.310Z,77.2763
2019-04-29T10:05:38.314Z,77.0886
2019-04-29T10:06:41.337Z,76.4797
2019-04-29T10:07:46.373Z,76.8002
2019-04-29T10:08:50.369Z,76.0983
2019-04-29T10:09:57.305Z,75.9197
2019-04-29T10:11:00.319Z,75.3979
2019-04-29T10:12:03.312Z,76.2036
2019-04-29T10:13:06.299Z,76.0113
2019-04-29T10:14:09.341Z,75.4391
2019-04-29T10:15:12.296Z,74.8257
2019-04-29T10:16:15.349Z,75.8572
2019-04-29T10:17:18.335Z,75.8114
2019-04-29T10:18:25.159Z,73.3227
2019-04-29T10:19:29.352Z,74.6883
2019-04-29T10:20:32.300Z,73.4340
2019-04-29T10:21:35.365Z,74.5785
2019-04-29T10:22:38.295Z,74.5739
2019-04-29T10:23:41.318Z,74.1970
2019-04-29T10:24:44.297Z,75.4406
2019-04-29T10:25:47.302Z,75.6954
2019-04-29T10:26:50.396Z,75.4665
2019-04-29T10:27:53.298Z,74.6548
2019-04-29T10:28:56.339Z,74.4945
2019-04-29T10:29:59.322Z,73.9239
2019-04-29T10:31:02.357Z,73.0312
2019-04-29T10:32:06.847Z,74.3221
2019-04-29T10:33:12.862Z,74.0887
2019-04-29T10:34:19.309Z,73.0800
2019-04-29T10:35:22.311Z,73.4020
2019-04-29T10:36:26.262Z,74.4961
2019-04-29T10:37:31.460Z,74.3069
2019-04-29T10:38:40.228Z,73.8125
2019-04-29T10:39:43.306Z,73.6110
2019-04-29T10:40:46.390Z,74.1283
2019-04-29T10:41:49.323Z,73.7087
2019-04-29T10:42:52.368Z,74.7707
2019-04-29T10:43:55.599Z,73.8399
2019-04-29T10:44:59.334Z,72.6543
2019-04-29T10:46:02.307Z,72.7703
2019-04-29T10:47:05.326Z,71.9860
2019-04-29T10:48:08.338Z,71.8624
2019-04-29T10:49:11.349Z,71.7952
2019-04-29T10:50:15.552Z,71.6884
2019-04-29T10:51:23.305Z,74.7295
2019-04-29T10:52:28.324Z,76.4569
2019-04-29T10:53:31.340Z,71.4977
2019-04-29T10:54:34.285Z,71.8715
2019-04-29T10:55:37.295Z,71.3451
2019-04-29T10:56:41.074Z,72.2210
2019-04-29T10:57:44.864Z,71.7128
2019-04-29T10:58:52.382Z,72.8557
2019-04-29T10:59:55.298Z,72.0729
2019-04-29T11:00:58.472Z,70.9300
2019-04-29T11:02:05.092Z,72.0882
2019-04-29T11:03:09.305Z,73.0343
2019-04-29T11:04:12.391Z,72.5032
2019-04-29T11:05:15.331Z,71.0658
2019-04-29T11:06:18.314Z,70.9895
2019-04-29T11:07:26.509Z,71.4382
2019-04-29T11:08:29.372Z,72.5368
2019-04-29T11:09:32.301Z,71.4549
2019-04-29T11:10:35.341Z,73.5348
2019-04-29T11:11:38.276Z,75.6741
2019-04-29T11:12:41.320Z,71.2642
2019-04-29T11:13:48.393Z,72.9076
2019-04-29T11:14:52.305Z,73.5378
2019-04-29T11:15:55.326Z,74.0322
2019-04-29T11:16:58.311Z,74.0505
2019-04-29T11:18:03.516Z,74.2794
2019-04-29T11:19:07.333Z,73.3181
2019-04-29T11:20:11.132Z,72.8939
2019-04-29T11:21:18.284Z,72.6238
2019-04-29T11:22:21.344Z,70.2968
2019-04-29T11:23:24.303Z,69.9184
2019-04-29T11:24:27.355Z,70.8476
2019-04-29T11:25:30.327Z,71.4290
2019-04-29T11:26:33.256Z,69.8711
2019-04-29T11:27:36.346Z,70.0877
2019-04-29T11:28:39.298Z,67.9911
2019-04-29T11:29:44.427Z,69.7353
2019-04-29T11:30:49.554Z,70.1824
2019-04-29T11:31:54.149Z,71.3176
2019-04-29T11:33:00.115Z,70.0923
2019-04-29T11:34:05.501Z,69.7200
2019-04-29T11:35:08.363Z,69.0852
2019-04-29T11:36:11.321Z,70.2571
2019-04-29T11:37:17.923Z,68.2521
2019-04-29T11:38:22.316Z,68.8106
2019-04-29T11:39:25.334Z,69.9260
2019-04-29T11:40:42.756Z,68.3116
2019-04-29T11:41:36.320Z,67.6417
2019-04-29T11:42:41.680Z,68.7724
2019-04-29T11:43:46.600Z,68.2368
2019-04-29T11:44:57.149Z,68.6687
2019-04-29T11:46:01.343Z,67.6646
2019-04-29T11:47:04.314Z,68.2460
2019-04-29T11:48:07.308Z,69.3446
2019-04-29T11:49:10.315Z,68.8823
2019-04-29T11:50:14.346Z,70.7500
2019-04-29T11:51:17.353Z,69.8482
2019-04-29T11:52:23.787Z,74.0658
2019-04-29T11:53:28.332Z,70.5959
2019-04-29T11:54:31.319Z,69.9413
2019-04-29T11:55:34.309Z,69.6117
2019-04-29T11:56:39.585Z,69.3553
2019-04-29T11:57:43.349Z,69.1478
2019-04-29T11:58:46.300Z,69.3400
2019-04-29T11:59:49.305Z,69.9550
2019-04-29T12:00:52.331Z,68.9342
2019-04-29T12:01:55.293Z,67.8859
2019-04-29T12:02:58.353Z,69.3553
2019-04-29T12:04:01.383Z,68.8792
2019-04-29T12:05:08.192Z,68.4245
2019-04-29T12:06:16.351Z,69.1127
2019-04-29T12:07:21.202Z,70.5211
2019-04-29T12:08:24.335Z,69.5186
2019-04-29T12:09:30.866Z,68.0735
2019-04-29T12:10:39.258Z,69.3370
2019-04-29T12:11:43.359Z,70.2937
2019-04-29T12:12:47.717Z,69.4240
2019-04-29T12:13:52.313Z,69.2363
2019-04-29T12:14:55.301Z,69.0196
2019-04-29T12:15:59.338Z,68.9647
2019-04-29T12:17:02.393Z,69.2134
2019-04-29T12:18:05.283Z,69.5140
2019-04-29T12:19:08.314Z,69.6162
2019-04-29T12:20:10.352Z,69.6559
2019-04-29T12:21:13.310Z,69.4408
2019-04-29T12:22:28.190Z,69.5232
2019-04-29T12:23:24.331Z,68.2887
2019-04-29T12:24:26.330Z,67.8538
2019-04-29T12:25:29.413Z,68.6259
2019-04-29T12:26:35.012Z,69.4331
2019-04-29T12:27:40.336Z,70.2342
2019-04-29T12:28:44.525Z,68.2826
2019-04-29T12:29:48.737Z,68.1270
2019-04-29T12:30:55.345Z,68.6854
2019-04-29T12:31:58.326Z,68.6778
2019-04-29T12:33:03.115Z,69.8299
2019-04-29T12:34:06.278Z,69.8726
2019-04-29T12:35:09.346Z,70.8278
2019-04-29T12:36:12.291Z,68.2918
2019-04-29T12:37:15.284Z,69.2988
2019-04-29T12:38:18.369Z,68.6915
2019-04-29T12:39:42.264Z,69.0623
2019-04-29T12:40:29.282Z,68.4154
2019-04-29T12:41:32.418Z,70.3609
2019-04-29T12:42:35.719Z,68.6030
2019-04-29T12:43:43.354Z,67.5517
2019-04-29T12:44:46.382Z,67.8630
2019-04-29T12:45:49.334Z,68.6641
2019-04-29T12:46:52.322Z,68.7587